Time;durP1;ratioP1;P1;durP2;ratioP2;P2;SDS_P1;SDS_P2;PMS_P1;PMS_P2;Temp;Humidity;BMP_temperature;BMP_pressure;BME280_temperature;BME280_humidity;BME280_pressure;Samples;Min_cycle;Max_cycle;Signal;HPM_P1;HPM_P2
2021/08/20 00:01:02;;;;;;;5.95;5.25;;;;;;;17.91;67.98;98700.92;262725;1088;26369;-73
2021/08/20 00:06:06;;;;;;;6.27;5.40;;;;;;;17.93;68.05;98694.02;262683;1090;26069;-72
2021/08/20 00:11:11;;;;;;;6.93;5.00;;;;;;;17.94;68.08;98700.23;262662;1088;25877;-73
2021/08/20 00:16:15;;;;;;;6.60;4.70;;;;;;;17.95;68.13;98689.06;262638;1087;22941;-73
2021/08/20 00:21:21;;;;;;;6.15;5.10;;;;;;;17.97;68.14;98698.78;262828;1085;25886;-73
2021/08/20 00:26:28;;;;;;;7.25;5.60;;;;;;;17.99;68.23;98694.57;262661;1089;22933;-72
2021/08/20 00:31:34;;;;;;;6.70;5.37;;;;;;;17.97;67.96;98694.14;262634;1090;22766;-72
2021/08/20 00:36:38;;;;;;;5.60;5.00;;;;;;;17.94;68.06;98695.59;262726;1089;26347;-72
2021/08/20 00:41:58;;;;;;;6.05;5.00;;;;;;;17.95;68.61;98696.41;262846;1087;24366;-72
2021/08/20 00:47:01;;;;;;;5.75;5.15;;;;;;;17.89;68.57;98695.81;262829;1090;23347;-72
2021/08/20 00:52:09;;;;;;;6.60;5.30;;;;;;;17.84;68.68;98693.32;262770;1087;22735;-72
2021/08/20 00:57:15;;;;;;;6.40;5.00;;;;;;;17.81;68.86;98698.61;262763;1087;22764;-71
2021/08/20 01:02:19;;;;;;;8.50;4.60;;;;;;;17.81;68.88;98693.20;262926;1089;22995;-72
2021/08/20 01:07:24;;;;;;;7.10;5.10;;;;;;;17.86;69.25;98693.77;262848;1090;22876;-72
2021/08/20 01:12:28;;;;;;;6.45;5.55;;;;;;;17.98;69.57;98689.50;262729;1087;26015;-72
2021/08/20 01:17:32;;;;;;;6.80;5.30;;;;;;;18.04;69.29;98685.45;262626;1088;23004;-72
2021/08/20 01:22:37;;;;;;;8.20;4.95;;;;;;;18.11;69.38;98699.21;262737;1090;22769;-71
2021/08/20 01:27:40;;;;;;;6.60;5.60;;;;;;;18.19;69.43;98703.72;262690;1087;24197;-72
2021/08/20 01:32:52;;;;;;;7.10;5.40;;;;;;;18.21;69.18;98693.31;262752;1088;22858;-72
2021/08/20 01:37:56;;;;;;;6.35;5.15;;;;;;;18.16;68.75;98696.28;262685;1088;22858;-71
2021/08/20 01:42:59;;;;;;;7.07;5.10;;;;;;;18.02;68.37;98698.53;262739;1089;26101;-72
2021/08/20 01:48:04;;;;;;;6.65;4.80;;;;;;;17.92;68.60;98694.36;262840;1090;26082;-72
2021/08/20 01:53:13;;;;;;;8.30;5.60;;;;;;;17.85;68.80;98683.27;262790;1089;26302;-71
2021/08/20 01:58:18;;;;;;;8.73;5.63;;;;;;;17.75;69.13;98687.22;262822;1087;22814;-72
2021/08/20 02:03:21;;;;;;;7.00;5.45;;;;;;;17.68;69.39;98681.57;262775;1085;24290;-72
2021/08/20 02:08:25;;;;;;;11.10;6.30;;;;;;;17.71;69.68;98683.59;262654;1087;24498;-72
2021/08/20 02:13:42;;;;;;;11.40;9.90;;;;;;;17.69;69.49;98672.33;262794;1088;23582;-73
2021/08/20 02:18:55;;;;;;;11.70;10.40;;;;;;;17.70;69.75;98682.04;262743;1087;22787;-72
2021/08/20 02:24:44;;;;;;;12.00;10.10;;;;;;;17.71;69.88;98671.46;230882;1215;544962;-72
2021/08/20 02:29:58;;;;;;;12.10;10.70;;;;;;;17.67;69.98;98669.57;232387;1206;23969;-71
2021/08/20 02:35:01;;;;;;;16.40;13.70;;;;;;;17.66;70.26;98666.34;232287;1206;24053;-72
2021/08/20 02:40:04;;;;;;;12.40;11.10;;;;;;;17.68;70.45;98665.31;232356;1206;22492;-70
2021/08/20 02:45:27;;;;;;;14.60;10.80;;;;;;;17.67;70.47;98666.47;232407;1199;22540;-72
2021/08/20 02:50:45;;;;;;;10.50;8.40;;;;;;;17.68;70.70;98664.17;232205;1207;24080;-72
2021/08/20 02:56:10;;;;;;;9.70;8.00;;;;;;;17.64;70.70;98668.14;232109;1208;24065;-72
2021/08/20 03:01:26;;;;;;;9.70;8.00;;;;;;;17.60;70.70;98669.20;232197;1206;24068;-72
2021/08/20 03:06:29;;;;;;;19.90;12.50;;;;;;;17.61;70.90;98673.85;232422;1208;24083;-70
2021/08/20 03:11:32;;;;;;;9.50;7.80;;;;;;;17.67;71.05;98676.96;232471;1208;25030;-72
2021/08/20 03:16:37;;;;;;;11.50;6.90;;;;;;;17.71;70.98;98684.30;232292;1207;24186;-71
2021/08/20 03:21:41;;;;;;;8.80;6.40;;;;;;;17.75;71.18;98692.64;232370;1202;24285;-70
2021/08/20 03:26:44;;;;;;;7.40;5.80;;;;;;;17.79;71.00;98696.89;232376;1208;25215;-71
2021/08/20 03:31:47;;;;;;;8.50;6.00;;;;;;;17.81;70.95;98702.96;232210;1208;24614;-72
2021/08/20 03:36:49;;;;;;;8.90;6.50;;;;;;;17.84;70.96;98702.60;232187;1208;23557;-72
2021/08/20 03:42:15;;;;;;;8.30;5.60;;;;;;;17.83;70.96;98701.42;232022;1207;24166;-72
2021/08/20 03:47:36;;;;;;;8.70;5.40;;;;;;;17.83;71.02;98695.14;232385;1208;25068;-72
2021/08/20 03:52:39;;;;;;;7.50;5.80;;;;;;;17.84;70.90;98696.51;232223;1200;24105;-72
2021/08/20 03:57:42;;;;;;;8.80;6.10;;;;;;;17.86;70.97;98696.48;232086;1208;23087;-71
2021/08/20 04:02:45;;;;;;;10.00;6.20;;;;;;;17.88;71.12;98694.34;232449;1208;25147;-72
2021/08/20 04:07:48;;;;;;;8.20;5.50;;;;;;;17.88;70.96;98693.75;232040;1208;24137;-72
2021/08/20 04:13:12;;;;;;;9.20;4.70;;;;;;;17.88;70.93;98693.97;232142;1208;24106;-72
2021/08/20 04:18:20;;;;;;;7.50;5.00;;;;;;;17.90;70.89;98693.05;232238;1207;24148;-72
2021/08/20 04:23:24;;;;;;;7.40;4.90;;;;;;;17.92;70.77;98693.91;232279;1208;24067;-72
2021/08/20 04:28:33;;;;;;;6.70;4.50;;;;;;;17.91;70.73;98702.94;232284;1208;22480;-71
2021/08/20 04:33:49;;;;;;;10.50;4.90;;;;;;;17.92;70.61;98707.76;232214;1208;24081;-72
2021/08/20 04:39:21;;;;;;;5.20;4.60;;;;;;;17.87;70.36;98710.66;232280;1207;24236;-72
2021/08/20 04:45:04;;;;;;;5.90;4.60;;;;;;;17.85;70.51;98709.21;232015;1211;24068;-71
2021/08/20 04:50:42;;;;;;;;;;;;;;;17.77;70.43;98708.04;231831;1210;24039;-72
2021/08/20 04:55:59;;;;;;;7.30;4.30;;;;;;;17.69;70.42;98702.19;231869;1208;24133;-72
2021/08/20 05:01:05;;;;;;;7.90;4.50;;;;;;;17.65;70.63;98700.91;232115;1208;24105;-71
2021/08/20 05:06:08;;;;;;;7.10;4.70;;;;;;;17.67;70.85;98703.54;232285;1207;24071;-71
2021/08/20 05:11:11;;;;;;;5.50;4.30;;;;;;;17.71;70.91;98704.83;232232;1199;24233;-72
2021/08/20 05:16:15;;;;;;;7.30;4.50;;;;;;;17.76;70.82;98706.30;232281;1208;24220;-70
2021/08/20 05:21:18;;;;;;;8.90;4.30;;;;;;;17.79;70.82;98710.41;232232;1208;24090;-73
2021/08/20 05:26:20;;;;;;;5.20;4.20;;;;;;;17.81;70.79;98706.59;232580;1208;24071;-71
2021/08/20 05:31:24;;;;;;;6.00;4.30;;;;;;;17.81;70.68;98705.77;232354;1199;24080;-73
2021/08/20 05:36:27;;;;;;;8.40;4.50;;;;;;;17.85;70.80;98704.65;232520;1199;22579;-70
2021/08/20 05:41:30;;;;;;;7.30;4.40;;;;;;;17.96;70.80;98706.72;232296;1207;24089;-70
2021/08/20 05:46:32;;;;;;;5.20;4.20;;;;;;;18.00;70.65;98709.27;232563;1208;24221;-71
2021/08/20 05:51:35;;;;;;;7.30;5.20;;;;;;;18.01;70.41;98710.29;232505;1207;22467;-71
2021/08/20 05:56:52;;;;;;;5.80;4.50;;;;;;;18.04;70.46;98710.85;232754;1207;24075;-71
2021/08/20 06:01:54;;;;;;;7.00;4.40;;;;;;;18.09;70.59;98712.62;232805;1207;24083;-70
2021/08/20 06:06:59;;;;;;;9.80;4.40;;;;;;;18.19;70.64;98713.10;233091;1208;24106;-70
2021/08/20 06:12:03;;;;;;;8.40;4.70;;;;;;;18.28;70.39;98712.52;232577;1202;22565;-72
2021/08/20 06:17:20;;;;;;;6.50;4.90;;;;;;;18.36;70.24;98712.92;232761;1208;25301;-70
2021/08/20 06:22:43;;;;;;;5.50;4.10;;;;;;;18.44;70.14;98712.91;230571;1208;24100;-70
2021/08/20 06:27:54;;;;;;;5.00;4.10;;;;;;;18.51;70.11;98707.30;233545;1208;22554;-70
2021/08/20 06:33:17;;;;;;;6.10;4.60;;;;;;;18.70;70.41;98711.40;237504;1202;24654;-69
2021/08/20 06:38:20;;;;;;;6.60;4.20;;;;;;;18.89;69.88;98716.68;234307;1205;22456;-71
2021/08/20 06:43:23;;;;;;;5.30;4.00;;;;;;;18.95;69.46;98721.15;235621;1202;24160;-71
2021/08/20 06:48:25;;;;;;;6.40;4.30;;;;;;;19.07;69.61;98729.06;233671;1202;24106;-70
2021/08/20 06:53:28;;;;;;;7.10;4.20;;;;;;;19.22;69.30;98722.25;234007;1196;22504;-70
2021/08/20 06:58:31;;;;;;;5.90;3.90;;;;;;;19.37;69.02;98730.07;233588;1201;22462;-70
2021/08/20 07:03:33;;;;;;;4.70;3.90;;;;;;;19.54;68.74;98731.47;233971;1193;24112;-70
2021/08/20 07:08:36;;;;;;;4.70;4.00;;;;;;;19.68;68.44;98733.83;233582;1201;24067;-70
2021/08/20 07:13:39;;;;;;;4.90;3.80;;;;;;;19.83;67.96;98736.94;233428;1200;22458;-71
2021/08/20 07:18:43;;;;;;;4.40;3.60;;;;;;;19.95;67.47;98740.11;233666;1201;25186;-73
2021/08/20 07:24:00;;;;;;;5.20;3.50;;;;;;;20.12;67.29;98738.16;233485;1201;24572;-73
2021/08/20 07:29:23;;;;;;;7.50;3.20;;;;;;;20.35;66.81;98731.94;233709;1205;24050;-73
2021/08/20 07:34:25;;;;;;;4.60;3.30;;;;;;;20.66;66.64;98736.79;233380;1201;24102;-72
2021/08/20 07:39:39;;;;;;;4.30;3.40;;;;;;;20.96;65.75;98730.27;233957;1207;26283;-72
2021/08/20 07:44:55;;;;;;;5.20;3.70;;;;;;;21.12;64.98;98742.49;233935;1196;25140;-73
2021/08/20 07:49:57;;;;;;;5.60;3.40;;;;;;;21.28;64.53;98742.08;234083;1199;22853;-73
2021/08/20 07:54:59;;;;;;;4.30;3.40;;;;;;;21.43;64.22;98747.34;234063;1202;22954;-73
2021/08/20 08:00:03;;;;;;;6.60;3.40;;;;;;;21.52;63.40;98745.72;234137;1201;24055;-72
2021/08/20 08:05:12;;;;;;;3.90;3.40;;;;;;;21.79;63.69;98748.46;233827;1203;24090;-73
2021/08/20 08:10:16;;;;;;;8.60;3.50;;;;;;;21.99;62.61;98743.86;233592;1201;26243;-72
2021/08/20 08:15:20;;;;;;;6.40;4.00;;;;;;;22.01;61.61;98748.09;233820;1201;25347;-72
2021/08/20 08:20:23;;;;;;;4.40;3.30;;;;;;;22.06;61.47;98748.65;233674;1201;24076;-71
2021/08/20 08:25:28;;;;;;;3.30;2.80;;;;;;;22.12;60.66;98749.60;234233;1200;22773;-73
2021/08/20 08:30:37;;;;;;;4.70;3.20;;;;;;;22.14;60.11;98747.92;233595;1201;24101;-73
2021/08/20 08:35:40;;;;;;;4.80;2.90;;;;;;;22.24;60.43;98749.08;233625;1202;23609;-72
2021/08/20 08:40:45;;;;;;;3.50;2.70;;;;;;;22.46;60.27;98752.08;233693;1200;25328;-77
2021/08/20 08:45:48;;;;;;;4.80;3.20;;;;;;;22.70;59.71;98754.67;233762;1201;22611;-73
2021/08/20 08:50:51;;;;;;;4.00;3.30;;;;;;;22.86;58.56;98755.95;233682;1196;24093;-72
2021/08/20 08:55:54;;;;;;;6.30;3.10;;;;;;;22.99;58.16;98753.07;233619;1206;24099;-72
2021/08/20 09:00:57;;;;;;;4.10;2.80;;;;;;;23.18;57.67;98757.30;233625;1206;22448;-71
2021/08/20 09:06:00;;;;;;;3.10;2.50;;;;;;;23.42;57.33;98759.65;233645;1201;24136;-70
2021/08/20 09:11:02;;;;;;;2.70;2.50;;;;;;;23.63;56.12;98758.69;233611;1201;24051;-71
2021/08/20 09:16:12;;;;;;;3.50;3.20;;;;;;;23.73;55.08;98757.52;233927;1201;22465;-70
2021/08/20 09:21:18;;;;;;;4.00;2.50;;;;;;;23.83;54.79;98753.23;233963;1197;22457;-70
2021/08/20 09:26:23;;;;;;;3.10;2.60;;;;;;;23.82;53.59;98753.61;233658;1201;24096;-69
2021/08/20 09:31:26;;;;;;;5.10;2.30;;;;;;;23.90;54.44;98755.02;233543;1201;22644;-71
2021/08/20 09:36:28;;;;;;;2.10;2.00;;;;;;;24.24;54.33;98756.23;233588;1202;22618;-71
2021/08/20 09:41:36;;;;;;;7.00;2.50;;;;;;;24.34;52.73;98757.48;233562;1202;22559;-71
2021/08/20 09:46:46;;;;;;;2.20;2.10;;;;;;;24.49;52.58;98756.38;233554;1203;24008;-71
2021/08/20 09:51:50;;;;;;;1.90;1.80;;;;;;;24.64;52.62;98754.76;233836;1202;22453;-70
2021/08/20 09:56:54;;;;;;;2.40;2.20;;;;;;;24.94;52.55;98749.98;233824;1201;22670;-72
2021/08/20 10:01:59;;;;;;;3.20;2.90;;;;;;;25.30;51.84;98748.23;233912;1201;24211;-71
2021/08/20 10:07:04;;;;;;;2.30;2.10;;;;;;;25.45;50.72;98746.54;234170;1201;22472;-71
2021/08/20 10:12:09;;;;;;;2.60;2.30;;;;;;;25.48;50.33;98746.39;233681;1200;24068;-71
2021/08/20 10:17:16;;;;;;;3.20;1.80;;;;;;;25.66;50.18;98747.42;233632;1202;24139;-71
2021/08/20 10:22:19;;;;;;;2.10;2.00;;;;;;;25.83;50.27;98746.58;233802;1200;22451;-71
2021/08/20 10:27:23;;;;;;;7.80;4.80;;;;;;;26.04;49.40;98746.98;233643;1203;24076;-73
2021/08/20 10:32:25;;;;;;;5.40;2.50;;;;;;;26.06;48.99;98744.39;235884;1201;25121;-72
2021/08/20 10:37:37;;;;;;;2.30;2.10;;;;;;;26.14;48.85;98748.16;233555;1201;22578;-71
2021/08/20 10:42:41;;;;;;;2.40;2.20;;;;;;;26.13;48.34;98745.56;233464;1206;25060;-71
2021/08/20 10:47:45;;;;;;;2.80;2.40;;;;;;;26.13;48.75;98739.77;233622;1202;22819;-70
2021/08/20 10:52:50;;;;;;;3.10;2.80;;;;;;;26.26;48.79;98735.98;233718;1201;24084;-70
2021/08/20 10:57:55;;;;;;;2.70;2.50;;;;;;;25.95;48.33;98737.25;234381;1206;24115;-71
2021/08/20 11:03:03;;;;;;;2.90;2.70;;;;;;;25.65;48.91;98739.28;236503;1203;25078;-71
2021/08/20 11:08:28;;;;;;;2.60;2.40;;;;;;;25.45;48.89;98742.00;236817;1203;25095;-71
2021/08/20 11:13:31;;;;;;;3.50;2.50;;;;;;;25.18;49.41;98742.30;233742;1205;24220;-71
2021/08/20 11:18:42;;;;;;;3.70;2.90;;;;;;;25.01;49.70;98741.86;233628;1206;25197;-71
2021/08/20 11:23:44;;;;;;;4.90;3.90;;;;;;;24.96;50.10;98743.64;233498;1206;24169;-71
2021/08/20 11:28:47;;;;;;;5.40;3.90;;;;;;;25.17;50.40;98738.23;233628;1206;22445;-72
2021/08/20 11:33:49;;;;;;;5.20;3.20;;;;;;;25.33;50.23;98736.48;233637;1201;25387;-72
2021/08/20 11:38:55;;;;;;;3.20;2.90;;;;;;;25.58;49.95;98737.32;233171;1203;24182;-73
2021/08/20 11:44:04;;;;;;;4.50;3.20;;;;;;;25.66;49.54;98737.95;233379;1206;24083;-71
2021/08/20 11:49:10;;;;;;;4.30;3.10;;;;;;;25.47;49.17;98738.08;233498;1203;22600;-70
2021/08/20 11:54:16;;;;;;;3.30;2.80;;;;;;;25.31;49.32;98736.63;233513;1206;22601;-73
2021/08/20 11:59:18;;;;;;;3.20;2.80;;;;;;;25.30;49.18;98736.54;234047;1196;22744;-71
2021/08/20 12:04:22;;;;;;;4.20;3.20;;;;;;;25.34;48.82;98736.89;234201;1202;22529;-71
2021/08/20 12:09:26;;;;;;;3.80;3.50;;;;;;;25.32;48.67;98734.27;234354;1202;22478;-71
2021/08/20 12:14:29;;;;;;;3.30;3.00;;;;;;;25.29;48.72;98733.79;234262;1201;24807;-70
2021/08/20 12:19:43;;;;;;;3.40;2.90;;;;;;;25.17;47.90;98732.04;234487;1202;24175;-71
2021/08/20 12:24:51;;;;;;;28.00;24.90;;;;;;;24.94;48.21;98730.56;233651;1201;25406;-71
2021/08/20 12:30:00;;;;;;;7.50;6.50;;;;;;;24.86;48.72;98728.33;233431;1202;22462;-72
2021/08/20 12:35:07;;;;;;;6.30;5.40;;;;;;;24.81;49.11;98730.13;233439;1201;24025;-72
2021/08/20 12:40:50;;;;;;;4.50;3.60;;;;;;;24.69;49.37;98724.05;233805;1206;24051;-72
2021/08/20 12:46:10;;;;;;;5.30;4.80;;;;;;;24.50;49.68;98724.63;233673;1202;22649;-72
2021/08/20 12:51:27;;;;;;;28.90;24.30;;;;;;;24.44;50.06;98722.17;233391;1202;24508;-71
2021/08/20 12:57:02;;;;;;;5.30;3.90;;;;;;;24.44;50.24;98723.59;233633;1201;24100;-72
2021/08/20 13:02:04;;;;;;;8.60;5.70;;;;;;;24.59;50.15;98721.56;233653;1192;25270;-72
2021/08/20 13:07:07;;;;;;;10.10;8.60;;;;;;;24.73;49.51;98714.52;233388;1208;22568;-70
2021/08/20 13:12:09;;;;;;;8.60;7.50;;;;;;;24.82;49.57;98707.98;233321;1195;24067;-72
2021/08/20 13:17:13;;;;;;;3.70;3.40;;;;;;;24.96;48.90;98708.17;233456;1201;24195;-71
2021/08/20 13:22:15;;;;;;;9.40;7.10;;;;;;;24.86;49.03;98712.37;233479;1196;24074;-71
2021/08/20 13:27:17;;;;;;;4.70;3.20;;;;;;;24.79;48.72;98709.78;233130;1202;26607;-71
2021/08/20 13:32:20;;;;;;;12.40;10.30;;;;;;;24.72;49.08;98706.06;233518;1197;22463;-71
2021/08/20 13:37:22;;;;;;;2.90;2.70;;;;;;;24.65;49.01;98702.44;233438;1195;24008;-72
2021/08/20 13:42:24;;;;;;;2.70;2.40;;;;;;;24.57;49.24;98696.88;233438;1201;22444;-71
2021/08/20 13:47:27;;;;;;;2.80;2.60;;;;;;;24.46;49.32;98693.10;233492;1201;25138;-71
2021/08/20 13:52:36;;;;;;;2.40;2.20;;;;;;;24.33;49.29;98689.03;233519;1202;24131;-71
2021/08/20 13:57:38;;;;;;;4.40;2.50;;;;;;;24.24;49.67;98684.99;233385;1201;26329;-71
2021/08/20 14:02:41;;;;;;;5.50;3.50;;;;;;;24.19;49.62;98684.02;233588;1198;24081;-71
2021/08/20 14:07:44;;;;;;;3.00;2.60;;;;;;;24.16;49.83;98682.37;233728;1201;25299;-72
2021/08/20 14:12:46;;;;;;;3.40;2.40;;;;;;;24.22;50.03;98678.33;233372;1201;24076;-73
2021/08/20 14:17:50;;;;;;;2.70;2.20;;;;;;;24.22;49.85;98676.30;233307;1201;24066;-71
2021/08/20 14:22:54;;;;;;;3.10;2.50;;;;;;;24.15;50.03;98681.81;233288;1201;24048;-72
2021/08/20 14:27:58;;;;;;;3.60;2.10;;;;;;;24.08;50.08;98681.46;233698;1201;24078;-73
2021/08/20 14:33:03;;;;;;;2.60;2.40;;;;;;;24.02;50.09;98680.64;233361;1202;22597;-73
2021/08/20 14:38:07;;;;;;;2.40;2.20;;;;;;;24.09;50.49;98675.20;233397;1201;25175;-73
2021/08/20 14:43:09;;;;;;;4.90;2.10;;;;;;;24.23;50.55;98672.15;233335;1200;24114;-71
2021/08/20 14:48:12;;;;;;;2.70;2.10;;;;;;;24.42;50.24;98667.64;233194;1201;24632;-73
2021/08/20 14:53:14;;;;;;;2.40;2.20;;;;;;;24.63;49.92;98666.81;233318;1201;24100;-72
2021/08/20 14:58:17;;;;;;;2.60;2.40;;;;;;;24.75;49.23;98666.41;233375;1193;25276;-73
2021/08/20 15:03:20;;;;;;;2.50;2.00;;;;;;;24.73;49.31;98670.23;233411;1202;24217;-73
2021/08/20 15:08:23;;;;;;;2.90;2.60;;;;;;;24.70;49.67;98670.14;233295;1201;25440;-72
2021/08/20 15:13:25;;;;;;;3.60;2.40;;;;;;;24.78;49.63;98667.97;232895;1201;25287;-74
2021/08/20 15:18:29;;;;;;;3.10;2.40;;;;;;;24.71;49.46;98673.66;233205;1201;24108;-71
2021/08/20 15:23:31;;;;;;;3.00;2.40;;;;;;;24.56;49.76;98679.45;233294;1201;24051;-72
2021/08/20 15:28:34;;;;;;;3.60;2.40;;;;;;;24.36;49.63;98686.85;233188;1202;22484;-71
2021/08/20 15:33:37;;;;;;;3.30;1.90;;;;;;;24.11;49.40;98683.82;233236;1201;24052;-72
2021/08/20 15:38:39;;;;;;;3.00;2.30;;;;;;;23.96;49.59;98683.88;233262;1200;22450;-73
2021/08/20 15:43:49;;;;;;;2.50;2.30;;;;;;;23.88;49.49;98680.15;233092;1195;24520;-71
2021/08/20 15:49:09;;;;;;;1.90;1.60;;;;;;;23.89;49.63;98681.48;233151;1201;24066;-73
2021/08/20 15:54:12;;;;;;;2.80;1.70;;;;;;;23.87;49.59;98682.55;233023;1201;24077;-72
2021/08/20 15:59:15;;;;;;;2.10;1.90;;;;;;;23.84;49.75;98682.75;233089;1195;22473;-71
2021/08/20 16:04:18;;;;;;;4.10;2.10;;;;;;;23.81;50.08;98687.34;233130;1201;22471;-73
2021/08/20 16:09:20;;;;;;;4.20;2.60;;;;;;;23.72;50.41;98684.70;233044;1196;24127;-73
2021/08/20 16:14:23;;;;;;;3.20;1.90;;;;;;;23.54;50.59;98681.11;232647;1201;24204;-73
2021/08/20 16:19:31;;;;;;;2.00;1.80;;;;;;;23.34;51.26;98689.14;232772;1201;24103;-73
2021/08/20 16:24:35;;;;;;;3.00;1.90;;;;;;;23.19;51.70;98689.62;233152;1194;24204;-72
2021/08/20 16:29:37;;;;;;;2.50;1.70;;;;;;;23.04;52.04;98693.10;233170;1195;24111;-72
2021/08/20 16:34:40;;;;;;;2.20;1.60;;;;;;;22.91;52.68;98696.48;232959;1201;25212;-73
2021/08/20 16:39:42;;;;;;;2.90;1.80;;;;;;;22.80;53.00;98702.82;232882;1195;24047;-71
2021/08/20 16:44:46;;;;;;;3.40;1.70;;;;;;;22.69;53.46;98708.86;232646;1201;23073;-73
2021/08/20 16:49:49;;;;;;;2.50;2.00;;;;;;;22.60;53.82;98709.45;233104;1201;24217;-73
2021/08/20 16:54:52;;;;;;;4.10;2.00;;;;;;;22.50;54.40;98715.17;233232;1201;22446;-72
2021/08/20 16:59:56;;;;;;;2.50;2.20;;;;;;;22.41;55.12;98716.84;233298;1201;22592;-73
2021/08/20 17:04:59;;;;;;;3.60;3.10;;;;;;;22.33;55.50;98715.61;232916;1201;24054;-72
2021/08/20 17:10:04;;;;;;;4.20;3.00;;;;;;;22.23;55.92;98712.04;233325;1201;24087;-73
2021/08/20 17:15:09;;;;;;;4.50;2.30;;;;;;;22.12;56.46;98715.30;233166;1201;22571;-73
2021/08/20 17:20:12;;;;;;;2.60;2.20;;;;;;;22.01;56.97;98719.51;233097;1209;24046;-73
2021/08/20 17:25:15;;;;;;;4.90;2.20;;;;;;;21.90;57.46;98723.09;233094;1201;22500;-73
2021/08/20 17:30:18;;;;;;;5.30;2.40;;;;;;;21.82;57.94;98726.99;232957;1201;22512;-72
2021/08/20 17:35:33;;;;;;;3.20;2.20;;;;;;;21.72;58.45;98728.62;232991;1201;24088;-73
2021/08/20 17:40:41;;;;;;;2.60;2.40;;;;;;;21.65;58.83;98724.77;232955;1194;24939;-73
2021/08/20 17:45:43;;;;;;;2.70;2.50;;;;;;;21.56;59.20;98729.37;233076;1202;22587;-73
2021/08/20 17:50:46;;;;;;;3.10;2.30;;;;;;;21.47;59.51;98736.26;233091;1201;24208;-73
2021/08/20 17:55:48;;;;;;;2.70;2.50;;;;;;;21.41;59.83;98750.18;233258;1195;24110;-73
2021/08/20 18:00:51;;;;;;;3.20;2.90;;;;;;;21.29;60.08;98763.59;233033;1193;22480;-74
2021/08/20 18:05:54;;;;;;;5.10;2.90;;;;;;;21.06;59.74;98765.33;233322;1201;24068;-73
2021/08/20 18:10:58;;;;;;;3.40;3.00;;;;;;;20.82;59.77;98775.65;233035;1201;26457;-70
2021/08/20 18:16:02;;;;;;;2.60;2.40;;;;;;;20.59;60.13;98783.67;233164;1201;22451;-70
2021/08/20 18:21:05;;;;;;;3.00;2.40;;;;;;;20.43;60.44;98789.77;233250;1203;24041;-73
2021/08/20 18:26:10;;;;;;;3.50;3.10;;;;;;;20.25;60.67;98798.54;233209;1201;24065;-74
2021/08/20 18:31:14;;;;;;;5.20;2.30;;;;;;;20.10;61.07;98798.80;233228;1201;22520;-73
2021/08/20 18:36:23;;;;;;;3.10;2.80;;;;;;;19.97;61.33;98804.39;233149;1201;25322;-70
2021/08/20 18:41:41;;;;;;;3.30;2.80;;;;;;;19.85;61.79;98816.88;233145;1195;22486;-71
2021/08/20 18:46:45;;;;;;;3.20;2.60;;;;;;;19.71;62.08;98817.67;233251;1201;24108;-73
2021/08/20 18:51:47;;;;;;;3.60;2.80;;;;;;;19.60;62.50;98821.89;233232;1201;24002;-73
2021/08/20 18:56:50;;;;;;;2.80;2.60;;;;;;;19.50;62.77;98826.38;233116;1202;24070;-72
2021/08/20 19:01:52;;;;;;;3.60;2.50;;;;;;;19.39;62.97;98828.94;233221;1201;24068;-73
2021/08/20 19:06:54;;;;;;;5.30;2.80;;;;;;;19.25;63.45;98828.23;233316;1202;22471;-73
2021/08/20 19:11:57;;;;;;;3.60;2.70;;;;;;;19.12;63.77;98829.42;233317;1202;22474;-73
2021/08/20 19:17:03;;;;;;;3.60;2.70;;;;;;;19.03;64.30;98829.16;233244;1201;25212;-72
2021/08/20 19:22:06;;;;;;;3.60;2.90;;;;;;;18.94;64.46;98827.11;233569;1201;24024;-73
2021/08/20 19:27:09;;;;;;;3.10;2.80;;;;;;;18.86;64.57;98834.21;233278;1201;25089;-72
2021/08/20 19:32:12;;;;;;;3.70;2.90;;;;;;;18.78;64.84;98840.19;233265;1201;24113;-73
2021/08/20 19:37:17;;;;;;;5.30;3.30;;;;;;;18.74;65.30;98850.21;233043;1201;22615;-72
2021/08/20 19:42:37;;;;;;;3.50;3.10;;;;;;;18.70;65.56;98851.48;233170;1201;24157;-72
2021/08/20 19:47:40;;;;;;;3.80;3.00;;;;;;;18.67;65.70;98854.48;233192;1201;24049;-73
2021/08/20 19:52:43;;;;;;;3.50;2.80;;;;;;;18.63;65.91;98862.29;233349;1202;22566;-73
2021/08/20 19:57:45;;;;;;;4.00;3.60;;;;;;;18.62;66.01;98863.33;233237;1201;22540;-72
2021/08/20 20:02:48;;;;;;;4.20;3.80;;;;;;;18.63;66.29;98869.11;233209;1201;24080;-73
2021/08/20 20:07:51;;;;;;;5.40;3.70;;;;;;;18.59;66.47;98868.20;233164;1201;25209;-72
2021/08/20 20:12:54;;;;;;;5.10;3.80;;;;;;;18.55;66.58;98868.80;233192;1201;24084;-72
2021/08/20 20:17:57;;;;;;;5.10;4.10;;;;;;;18.54;66.92;98869.69;233201;1201;22472;-74
2021/08/20 20:23:00;;;;;;;4.90;4.00;;;;;;;18.52;67.03;98875.36;233127;1201;22465;-73
2021/08/20 20:28:03;;;;;;;4.00;3.50;;;;;;;18.50;67.27;98870.41;233111;1201;24042;-73
2021/08/20 20:33:07;;;;;;;4.50;3.60;;;;;;;18.49;67.42;98874.25;233305;1201;24058;-71
2021/08/20 20:38:10;;;;;;;3.90;3.20;;;;;;;18.51;67.56;98871.82;233354;1201;22498;-72
2021/08/20 20:43:12;;;;;;;4.10;3.30;;;;;;;18.49;67.71;98879.75;233068;1195;26217;-73
2021/08/20 20:48:15;;;;;;;5.40;3.10;;;;;;;18.45;67.71;98878.77;233214;1201;24077;-72
2021/08/20 20:53:23;;;;;;;3.90;2.90;;;;;;;18.42;67.95;98880.08;233080;1195;25367;-73
2021/08/20 20:58:46;;;;;;;4.20;3.50;;;;;;;18.45;68.17;98886.91;233060;1193;25481;-74
2021/08/20 21:03:49;;;;;;;6.40;3.80;;;;;;;18.46;68.25;98885.30;233176;1201;24136;-75
2021/08/20 21:09:11;;;;;;;8.70;3.90;;;;;;;18.42;68.36;98885.73;233116;1201;24095;-73
2021/08/20 21:14:13;;;;;;;5.40;4.00;;;;;;;18.38;68.40;98887.61;233222;1196;24062;-74
2021/08/20 21:19:22;;;;;;;4.40;3.90;;;;;;;18.34;68.60;98887.77;233118;1202;24128;-72
2021/08/20 21:24:32;;;;;;;6.30;4.10;;;;;;;18.29;68.79;98887.01;233146;1202;24065;-73
2021/08/20 21:29:40;;;;;;;6.50;4.10;;;;;;;18.19;69.04;98885.75;233193;1201;24110;-73
2021/08/20 21:34:56;;;;;;;5.50;4.20;;;;;;;18.10;69.19;98893.73;233114;1202;24053;-73
2021/08/20 21:40:21;;;;;;;5.90;4.50;;;;;;;18.02;69.60;98896.08;233158;1202;24074;-73
2021/08/20 21:45:23;;;;;;;7.30;4.50;;;;;;;17.96;69.96;98902.70;233152;1194;25662;-72
2021/08/20 21:50:26;;;;;;;4.60;3.90;;;;;;;17.90;70.24;98905.84;233230;1201;24064;-73
2021/08/20 21:55:28;;;;;;;5.20;4.00;;;;;;;17.86;70.30;98904.09;233294;1201;25275;-73
2021/08/20 22:00:31;;;;;;;5.80;4.00;;;;;;;17.83;70.52;98904.06;233289;1201;24075;-72
2021/08/20 22:05:40;;;;;;;5.50;4.50;;;;;;;17.83;70.81;98906.94;233116;1196;24129;-73
2021/08/20 22:10:43;;;;;;;7.30;4.60;;;;;;;17.85;71.05;98909.48;233041;1204;22923;-72
2021/08/20 22:15:54;;;;;;;4.80;4.20;;;;;;;17.83;71.21;98907.48;233141;1202;24194;-72
2021/08/20 22:21:13;;;;;;;5.50;3.70;;;;;;;17.79;71.23;98908.91;233200;1193;23837;-72
2021/08/20 22:26:29;;;;;;;4.80;4.00;;;;;;;17.73;71.36;98911.34;233187;1208;24068;-75
2021/08/20 22:31:53;;;;;;;4.70;4.10;;;;;;;17.74;71.82;98909.10;233204;1202;24160;-72
2021/08/20 22:36:56;;;;;;;6.80;4.40;;;;;;;17.78;71.88;98914.50;233160;1201;22474;-73
2021/08/20 22:41:58;;;;;;;5.90;4.30;;;;;;;17.71;71.78;98920.24;233208;1201;24343;-73
2021/08/20 22:47:01;;;;;;;4.40;3.90;;;;;;;17.61;71.79;98918.02;233118;1201;22603;-73
2021/08/20 22:52:05;;;;;;;6.80;4.70;;;;;;;17.59;72.16;98914.92;233197;1201;24026;-71
2021/08/20 22:57:07;;;;;;;5.70;4.40;;;;;;;17.62;72.48;98919.29;233046;1201;22453;-73
2021/08/20 23:02:10;;;;;;;7.00;4.50;;;;;;;17.56;72.54;98922.85;233071;1201;24106;-71
2021/08/20 23:07:13;;;;;;;5.10;4.40;;;;;;;17.39;72.70;98922.64;232886;1201;24078;-74
2021/08/20 23:12:15;;;;;;;5.00;4.30;;;;;;;17.32;72.95;98918.70;232862;1196;22569;-73
2021/08/20 23:17:32;;;;;;;6.60;4.90;;;;;;;17.26;73.17;98915.11;233031;1201;24052;-70
2021/08/20 23:22:36;;;;;;;5.30;4.80;;;;;;;17.17;73.37;98916.60;233059;1201;24047;-73
2021/08/20 23:27:39;;;;;;;7.00;5.70;;;;;;;17.12;73.83;98916.67;233092;1195;25105;-74
2021/08/20 23:32:42;;;;;;;7.00;5.80;;;;;;;17.05;74.17;98918.56;233201;1202;22504;-73
2021/08/20 23:37:44;;;;;;;8.20;5.10;;;;;;;16.98;74.30;98915.80;233069;1196;24068;-72
2021/08/20 23:42:47;;;;;;;5.30;4.70;;;;;;;16.92;74.54;98919.48;233144;1202;22385;-73